sensor_id;sensor_type;location;lat;lon;timestamp;pressure;altitude;pressure_sealevel;temperature;humidity
76553;BME280;65395;53.168;18.156;2024-03-17T00:01:14;101141.98;;;3.60;72.10
76553;BME280;65395;53.168;18.156;2024-03-17T00:04:01;101132.60;;;3.59;71.93
76553;BME280;65395;53.168;18.156;2024-03-17T00:06:29;101130.21;;;3.58;72.10
76553;BME280;65395;53.168;18.156;2024-03-17T00:08:56;101130.23;;;3.54;72.16
76553;BME280;65395;53.168;18.156;2024-03-17T00:11:23;101132.89;;;3.49;71.84
76553;BME280;65395;53.168;18.156;2024-03-17T00:13:50;101127.95;;;3.46;71.87
76553;BME280;65395;53.168;18.156;2024-03-17T00:16:16;101130.13;;;3.43;71.61
76553;BME280;65395;53.168;18.156;2024-03-17T00:18:45;101125.62;;;3.44;70.41
76553;BME280;65395;53.168;18.156;2024-03-17T00:21:13;101122.02;;;3.47;70.55
76553;BME280;65395;53.168;18.156;2024-03-17T00:23:40;101117.63;;;3.48;70.53
76553;BME280;65395;53.168;18.156;2024-03-17T00:26:07;101114.90;;;3.47;70.67
76553;BME280;65395;53.168;18.156;2024-03-17T00:28:33;101120.16;;;3.47;69.80
76553;BME280;65395;53.168;18.156;2024-03-17T00:31:03;101121.60;;;3.50;69.64
76553;BME280;65395;53.168;18.156;2024-03-17T00:33:30;101114.39;;;3.55;69.70
76553;BME280;65395;53.168;18.156;2024-03-17T00:35:59;101111.14;;;3.59;69.55
76553;BME280;65395;53.168;18.156;2024-03-17T00:38:26;101112.02;;;3.65;69.62
76553;BME280;65395;53.168;18.156;2024-03-17T00:40:53;101110.27;;;3.71;69.49
76553;BME280;65395;53.168;18.156;2024-03-17T00:43:19;101110.72;;;3.80;69.27
76553;BME280;65395;53.168;18.156;2024-03-17T00:45:53;101106.17;;;3.87;68.85
76553;BME280;65395;53.168;18.156;2024-03-17T00:48:20;101103.73;;;3.95;69.40
76553;BME280;65395;53.168;18.156;2024-03-17T00:50:55;101107.12;;;4.01;69.51
76553;BME280;65395;53.168;18.156;2024-03-17T00:53:21;101105.55;;;4.05;69.52
76553;BME280;65395;53.168;18.156;2024-03-17T00:55:52;101104.55;;;4.09;69.71
76553;BME280;65395;53.168;18.156;2024-03-17T00:58:20;101103.06;;;4.11;69.65
76553;BME280;65395;53.168;18.156;2024-03-17T01:00:47;101110.38;;;4.14;69.55
76553;BME280;65395;53.168;18.156;2024-03-17T01:03:15;101107.79;;;4.18;69.74
76553;BME280;65395;53.168;18.156;2024-03-17T01:05:42;101110.26;;;4.21;69.38
76553;BME280;65395;53.168;18.156;2024-03-17T01:08:11;101106.83;;;4.24;69.59
76553;BME280;65395;53.168;18.156;2024-03-17T01:10:38;101105.98;;;4.27;69.38
76553;BME280;65395;53.168;18.156;2024-03-17T01:13:06;101099.62;;;4.30;69.49
76553;BME280;65395;53.168;18.156;2024-03-17T01:15:35;101102.23;;;4.33;69.42
76553;BME280;65395;53.168;18.156;2024-03-17T01:18:02;101101.14;;;4.36;69.19
76553;BME280;65395;53.168;18.156;2024-03-17T01:20:32;101099.13;;;4.39;69.13
76553;BME280;65395;53.168;18.156;2024-03-17T01:22:59;101096.88;;;4.42;69.22
76553;BME280;65395;53.168;18.156;2024-03-17T01:25:25;101099.01;;;4.44;68.97
76553;BME280;65395;53.168;18.156;2024-03-17T01:27:53;101099.36;;;4.46;69.01
76553;BME280;65395;53.168;18.156;2024-03-17T01:30:19;101099.88;;;4.49;69.21
76553;BME280;65395;53.168;18.156;2024-03-17T01:32:47;101101.33;;;4.51;68.92
76553;BME280;65395;53.168;18.156;2024-03-17T01:35:14;101102.02;;;4.55;68.50
76553;BME280;65395;53.168;18.156;2024-03-17T01:37:41;101095.39;;;4.58;68.15
76553;BME280;65395;53.168;18.156;2024-03-17T01:40:08;101092.73;;;4.61;68.57
76553;BME280;65395;53.168;18.156;2024-03-17T01:42:38;101086.10;;;4.61;68.47
76553;BME280;65395;53.168;18.156;2024-03-17T01:45:23;101093.42;;;4.68;68.57
76553;BME280;65395;53.168;18.156;2024-03-17T01:47:52;101087.96;;;4.72;68.36
76553;BME280;65395;53.168;18.156;2024-03-17T01:50:19;101085.52;;;4.75;68.80
76553;BME280;65395;53.168;18.156;2024-03-17T01:52:53;101083.64;;;4.77;68.90
76553;BME280;65395;53.168;18.156;2024-03-17T01:55:22;101083.59;;;4.78;69.35
76553;BME280;65395;53.168;18.156;2024-03-17T01:57:50;101081.66;;;4.80;69.69
76553;BME280;65395;53.168;18.156;2024-03-17T02:00:18;101084.79;;;4.82;70.01
76553;BME280;65395;53.168;18.156;2024-03-17T02:02:45;101079.63;;;4.83;70.27
76553;BME280;65395;53.168;18.156;2024-03-17T02:05:12;101088.11;;;4.84;70.49
76553;BME280;65395;53.168;18.156;2024-03-17T02:07:38;101088.98;;;4.85;70.56
76553;BME280;65395;53.168;18.156;2024-03-17T02:10:06;101085.33;;;4.85;70.66
76553;BME280;65395;53.168;18.156;2024-03-17T02:12:36;101085.34;;;4.86;70.72
76553;BME280;65395;53.168;18.156;2024-03-17T02:15:04;101084.95;;;4.85;70.83
76553;BME280;65395;53.168;18.156;2024-03-17T02:17:32;101085.70;;;4.85;70.89
76553;BME280;65395;53.168;18.156;2024-03-17T02:19:59;101080.83;;;4.85;70.90
76553;BME280;65395;53.168;18.156;2024-03-17T02:22:27;101084.48;;;4.85;70.78
76553;BME280;65395;53.168;18.156;2024-03-17T02:24:55;101088.23;;;4.84;70.71
76553;BME280;65395;53.168;18.156;2024-03-17T02:27:21;101085.98;;;4.84;70.51
76553;BME280;65395;53.168;18.156;2024-03-17T02:29:48;101087.98;;;4.85;70.41
76553;BME280;65395;53.168;18.156;2024-03-17T02:32:15;101080.68;;;4.84;70.22
76553;BME280;65395;53.168;18.156;2024-03-17T02:34:42;101083.27;;;4.84;69.99
76553;BME280;65395;53.168;18.156;2024-03-17T02:37:10;101077.95;;;4.83;69.65
76553;BME280;65395;53.168;18.156;2024-03-17T02:39:36;101080.16;;;4.84;69.80
76553;BME280;65395;53.168;18.156;2024-03-17T02:42:07;101076.55;;;4.83;69.42
76553;BME280;65395;53.168;18.156;2024-03-17T02:44:35;101082.35;;;4.83;68.72
76553;BME280;65395;53.168;18.156;2024-03-17T02:47:03;101073.83;;;4.83;69.03
76553;BME280;65395;53.168;18.156;2024-03-17T02:49:32;101073.69;;;4.84;69.33
76553;BME280;65395;53.168;18.156;2024-03-17T02:52:03;101079.17;;;4.83;68.61
76553;BME280;65395;53.168;18.156;2024-03-17T02:54:32;101072.93;;;4.82;67.97
76553;BME280;65395;53.168;18.156;2024-03-17T02:56:59;101066.96;;;4.81;68.21
76553;BME280;65395;53.168;18.156;2024-03-17T02:59:26;101062.14;;;4.78;68.25
76553;BME280;65395;53.168;18.156;2024-03-17T03:01:52;101053.52;;;4.71;68.38
76553;BME280;65395;53.168;18.156;2024-03-17T03:04:20;101054.82;;;4.61;68.33
76553;BME280;65395;53.168;18.156;2024-03-17T03:06:47;101054.45;;;4.51;68.50
76553;BME280;65395;53.168;18.156;2024-03-17T03:09:14;101053.27;;;4.43;68.53
76553;BME280;65395;53.168;18.156;2024-03-17T03:11:47;101057.49;;;4.38;68.74
76553;BME280;65395;53.168;18.156;2024-03-17T03:14:14;101066.67;;;4.37;68.73
76553;BME280;65395;53.168;18.156;2024-03-17T03:16:40;101065.64;;;4.38;68.80
76553;BME280;65395;53.168;18.156;2024-03-17T03:19:07;101067.54;;;4.42;68.97
76553;BME280;65395;53.168;18.156;2024-03-17T03:21:34;101069.33;;;4.45;68.86
76553;BME280;65395;53.168;18.156;2024-03-17T03:24:01;101070.89;;;4.48;68.75
76553;BME280;65395;53.168;18.156;2024-03-17T03:26:28;101072.61;;;4.51;68.72
76553;BME280;65395;53.168;18.156;2024-03-17T03:28:55;101063.73;;;4.54;68.71
76553;BME280;65395;53.168;18.156;2024-03-17T03:31:21;101067.31;;;4.55;68.63
76553;BME280;65395;53.168;18.156;2024-03-17T03:33:48;101063.15;;;4.56;68.61
76553;BME280;65395;53.168;18.156;2024-03-17T03:36:15;101061.91;;;4.58;68.73
76553;BME280;65395;53.168;18.156;2024-03-17T03:38:43;101064.83;;;4.60;68.71
76553;BME280;65395;53.168;18.156;2024-03-17T03:41:14;101064.26;;;4.63;68.64
76553;BME280;65395;53.168;18.156;2024-03-17T03:43:42;101064.55;;;4.65;68.49
76553;BME280;65395;53.168;18.156;2024-03-17T03:46:09;101062.52;;;4.68;68.59
76553;BME280;65395;53.168;18.156;2024-03-17T03:48:36;101068.30;;;4.69;68.59
76553;BME280;65395;53.168;18.156;2024-03-17T03:51:05;101058.54;;;4.71;68.56
76553;BME280;65395;53.168;18.156;2024-03-17T03:53:33;101058.23;;;4.72;68.68
76553;BME280;65395;53.168;18.156;2024-03-17T03:56:03;101063.98;;;4.71;68.53
76553;BME280;65395;53.168;18.156;2024-03-17T03:58:33;101065.63;;;4.72;68.36
76553;BME280;65395;53.168;18.156;2024-03-17T04:01:09;101066.11;;;4.74;68.25
76553;BME280;65395;53.168;18.156;2024-03-17T04:03:37;101072.85;;;4.74;68.27
76553;BME280;65395;53.168;18.156;2024-03-17T04:06:08;101080.64;;;4.75;68.78
76553;BME280;65395;53.168;18.156;2024-03-17T04:08:37;101094.63;;;4.74;69.74
76553;BME280;65395;53.168;18.156;2024-03-17T04:11:04;101104.09;;;4.69;70.92
76553;BME280;65395;53.168;18.156;2024-03-17T04:13:31;101109.60;;;4.61;72.11
76553;BME280;65395;53.168;18.156;2024-03-17T04:16:00;101113.11;;;4.50;72.91
76553;BME280;65395;53.168;18.156;2024-03-17T04:18:28;101125.05;;;4.39;74.18
76553;BME280;65395;53.168;18.156;2024-03-17T04:20:58;101114.10;;;4.23;75.79
76553;BME280;65395;53.168;18.156;2024-03-17T04:23:27;101112.38;;;4.07;76.02
76553;BME280;65395;53.168;18.156;2024-03-17T04:25:54;101114.64;;;3.96;76.57
76553;BME280;65395;53.168;18.156;2024-03-17T04:28:21;101118.88;;;3.86;77.24
76553;BME280;65395;53.168;18.156;2024-03-17T04:30:47;101121.42;;;3.78;77.53
76553;BME280;65395;53.168;18.156;2024-03-17T04:33:14;101118.95;;;3.73;77.85
76553;BME280;65395;53.168;18.156;2024-03-17T04:35:43;101122.50;;;3.67;78.69
76553;BME280;65395;53.168;18.156;2024-03-17T04:38:11;101119.34;;;3.62;78.63
76553;BME280;65395;53.168;18.156;2024-03-17T04:40:41;101117.20;;;3.59;78.37
76553;BME280;65395;53.168;18.156;2024-03-17T04:43:08;101120.41;;;3.56;78.52
76553;BME280;65395;53.168;18.156;2024-03-17T04:45:35;101121.05;;;3.54;78.66
76553;BME280;65395;53.168;18.156;2024-03-17T04:48:04;101122.37;;;3.52;78.46
76553;BME280;65395;53.168;18.156;2024-03-17T04:50:31;101129.84;;;3.49;79.17
76553;BME280;65395;53.168;18.156;2024-03-17T04:52:59;101123.70;;;3.42;79.34
76553;BME280;65395;53.168;18.156;2024-03-17T04:55:26;101127.30;;;3.38;79.00
76553;BME280;65395;53.168;18.156;2024-03-17T04:57:53;101132.27;;;3.36;79.63
76553;BME280;65395;53.168;18.156;2024-03-17T05:00:20;101137.33;;;3.35;79.89
76553;BME280;65395;53.168;18.156;2024-03-17T05:02:48;101141.29;;;3.33;80.00
76553;BME280;65395;53.168;18.156;2024-03-17T05:05:15;101135.74;;;3.31;80.17
76553;BME280;65395;53.168;18.156;2024-03-17T05:07:41;101147.04;;;3.31;80.10
76553;BME280;65395;53.168;18.156;2024-03-17T05:10:08;101153.09;;;3.32;80.13
76553;BME280;65395;53.168;18.156;2024-03-17T05:12:35;101150.83;;;3.33;80.05
76553;BME280;65395;53.168;18.156;2024-03-17T05:15:02;101156.41;;;3.33;79.69
76553;BME280;65395;53.168;18.156;2024-03-17T05:17:30;101160.72;;;3.36;79.37
76553;BME280;65395;53.168;18.156;2024-03-17T05:19:57;101161.23;;;3.39;79.29
76553;BME280;65395;53.168;18.156;2024-03-17T05:22:24;101175.23;;;3.42;79.26
76553;BME280;65395;53.168;18.156;2024-03-17T05:24:51;101179.16;;;3.44;78.85
76553;BME280;65395;53.168;18.156;2024-03-17T05:27:17;101182.55;;;3.47;78.65
76553;BME280;65395;53.168;18.156;2024-03-17T05:29:44;101180.73;;;3.49;78.43
76553;BME280;65395;53.168;18.156;2024-03-17T05:32:11;101184.12;;;3.52;78.18
76553;BME280;65395;53.168;18.156;2024-03-17T05:34:38;101192.13;;;3.54;78.09
76553;BME280;65395;53.168;18.156;2024-03-17T05:37:04;101186.86;;;3.56;77.84
76553;BME280;65395;53.168;18.156;2024-03-17T05:39:31;101189.77;;;3.57;77.60
76553;BME280;65395;53.168;18.156;2024-03-17T05:41:58;101200.88;;;3.59;77.40
76553;BME280;65395;53.168;18.156;2024-03-17T05:44:25;101203.13;;;3.62;76.88
76553;BME280;65395;53.168;18.156;2024-03-17T05:46:51;101206.64;;;3.65;76.64
76553;BME280;65395;53.168;18.156;2024-03-17T05:49:20;101198.89;;;3.68;76.68
76553;BME280;65395;53.168;18.156;2024-03-17T05:51:47;101205.81;;;3.72;76.24
76553;BME280;65395;53.168;18.156;2024-03-17T05:54:14;101202.48;;;3.74;75.90
76553;BME280;65395;53.168;18.156;2024-03-17T05:56:41;101208.51;;;3.78;75.38
76553;BME280;65395;53.168;18.156;2024-03-17T05:59:08;101209.20;;;3.80;74.64
76553;BME280;65395;53.168;18.156;2024-03-17T06:01:34;101202.10;;;3.83;74.89
76553;BME280;65395;53.168;18.156;2024-03-17T06:04:02;101211.19;;;3.86;74.69
76553;BME280;65395;53.168;18.156;2024-03-17T06:06:31;101206.95;;;3.85;74.58
76553;BME280;65395;53.168;18.156;2024-03-17T06:08:58;101217.52;;;3.84;73.94
76553;BME280;65395;53.168;18.156;2024-03-17T06:11:25;101209.15;;;3.83;73.81
76553;BME280;65395;53.168;18.156;2024-03-17T06:13:51;101212.26;;;3.84;73.70
76553;BME280;65395;53.168;18.156;2024-03-17T06:16:18;101216.73;;;3.86;73.18
76553;BME280;65395;53.168;18.156;2024-03-17T06:18:46;101220.52;;;3.88;73.30
76553;BME280;65395;53.168;18.156;2024-03-17T06:21:16;101219.80;;;3.88;72.54
76553;BME280;65395;53.168;18.156;2024-03-17T06:23:44;101223.55;;;3.91;72.31
76553;BME280;65395;53.168;18.156;2024-03-17T06:26:12;101217.17;;;3.93;72.19
76553;BME280;65395;53.168;18.156;2024-03-17T06:28:39;101217.40;;;3.96;71.64
76553;BME280;65395;53.168;18.156;2024-03-17T06:31:08;101220.42;;;4.00;71.12
76553;BME280;65395;53.168;18.156;2024-03-17T06:33:36;101223.45;;;4.03;71.03
76553;BME280;65395;53.168;18.156;2024-03-17T06:36:04;101223.27;;;4.04;70.23
76553;BME280;65395;53.168;18.156;2024-03-17T06:38:32;101224.14;;;4.05;69.89
76553;BME280;65395;53.168;18.156;2024-03-17T06:40:59;101227.48;;;4.08;70.49
76553;BME280;65395;53.168;18.156;2024-03-17T06:43:26;101238.79;;;4.12;70.08
76553;BME280;65395;53.168;18.156;2024-03-17T06:45:57;101231.85;;;4.14;70.19
76553;BME280;65395;53.168;18.156;2024-03-17T06:48:25;101230.52;;;4.16;70.16
76553;BME280;65395;53.168;18.156;2024-03-17T06:50:52;101236.92;;;4.19;70.37
76553;BME280;65395;53.168;18.156;2024-03-17T06:53:21;101241.48;;;4.24;70.49
76553;BME280;65395;53.168;18.156;2024-03-17T06:55:57;101248.86;;;4.28;70.16
76553;BME280;65395;53.168;18.156;2024-03-17T06:58:25;101249.74;;;4.31;69.94
76553;BME280;65395;53.168;18.156;2024-03-17T07:00:59;101244.48;;;4.31;69.74
76553;BME280;65395;53.168;18.156;2024-03-17T07:03:27;101253.18;;;4.33;69.80
76553;BME280;65395;53.168;18.156;2024-03-17T07:05:55;101251.09;;;4.35;70.23
76553;BME280;65395;53.168;18.156;2024-03-17T07:08:23;101250.97;;;4.37;70.21
76553;BME280;65395;53.168;18.156;2024-03-17T07:11:01;101257.88;;;4.40;70.32
76553;BME280;65395;53.168;18.156;2024-03-17T07:13:33;101261.89;;;4.42;70.35
76553;BME280;65395;53.168;18.156;2024-03-17T07:16:01;101265.89;;;4.43;70.36
76553;BME280;65395;53.168;18.156;2024-03-17T07:18:29;101268.36;;;4.43;70.31
76553;BME280;65395;53.168;18.156;2024-03-17T07:20:57;101273.94;;;4.42;70.81
76553;BME280;65395;53.168;18.156;2024-03-17T07:23:25;101276.61;;;4.42;70.89
76553;BME280;65395;53.168;18.156;2024-03-17T07:25:54;101276.38;;;4.41;71.10
76553;BME280;65395;53.168;18.156;2024-03-17T07:28:22;101282.45;;;4.37;71.48
76553;BME280;65395;53.168;18.156;2024-03-17T07:30:50;101281.39;;;4.38;71.72
76553;BME280;65395;53.168;18.156;2024-03-17T07:33:18;101285.48;;;4.45;71.82
76553;BME280;65395;53.168;18.156;2024-03-17T07:35:51;101286.92;;;4.48;72.15
76553;BME280;65395;53.168;18.156;2024-03-17T07:38:18;101289.38;;;4.49;72.34
76553;BME280;65395;53.168;18.156;2024-03-17T07:40:55;101291.83;;;4.51;72.45
76553;BME280;65395;53.168;18.156;2024-03-17T07:43:24;101295.34;;;4.54;72.45
76553;BME280;65395;53.168;18.156;2024-03-17T07:46:02;101285.99;;;4.58;72.63
76553;BME280;65395;53.168;18.156;2024-03-17T07:48:31;101289.35;;;4.67;72.42
76553;BME280;65395;53.168;18.156;2024-03-17T07:51:00;101297.63;;;4.76;72.15
76553;BME280;65395;53.168;18.156;2024-03-17T07:53:30;101295.74;;;4.81;71.85
76553;BME280;65395;53.168;18.156;2024-03-17T07:56:02;101295.50;;;4.84;71.19
76553;BME280;65395;53.168;18.156;2024-03-17T07:58:32;101311.77;;;4.85;70.95
76553;BME280;65395;53.168;18.156;2024-03-17T08:01:00;101306.90;;;4.85;71.21
76553;BME280;65395;53.168;18.156;2024-03-17T08:03:29;101307.47;;;4.87;71.35
76553;BME280;65395;53.168;18.156;2024-03-17T08:05:58;101315.23;;;4.76;71.84
76553;BME280;65395;53.168;18.156;2024-03-17T08:08:25;101314.05;;;4.62;72.32
76553;BME280;65395;53.168;18.156;2024-03-17T08:10:52;101316.53;;;4.53;72.96
76553;BME280;65395;53.168;18.156;2024-03-17T08:13:20;101318.96;;;4.50;73.61
76553;BME280;65395;53.168;18.156;2024-03-17T08:15:56;101319.14;;;4.46;74.05
76553;BME280;65395;53.168;18.156;2024-03-17T08:18:24;101326.71;;;4.46;74.33
76553;BME280;65395;53.168;18.156;2024-03-17T08:20:51;101341.63;;;4.46;74.05
76553;BME280;65395;53.168;18.156;2024-03-17T08:23:18;101344.30;;;4.32;74.56
76553;BME280;65395;53.168;18.156;2024-03-17T08:25:54;101343.20;;;4.06;75.31
76553;BME280;65395;53.168;18.156;2024-03-17T08:28:22;101338.20;;;3.78;76.26
76553;BME280;65395;53.168;18.156;2024-03-17T08:30:57;101333.93;;;3.66;76.92
76553;BME280;65395;53.168;18.156;2024-03-17T08:33:25;101339.83;;;3.64;77.06
76553;BME280;65395;53.168;18.156;2024-03-17T08:35:55;101331.55;;;3.67;77.07
76553;BME280;65395;53.168;18.156;2024-03-17T08:38:22;101336.09;;;3.75;77.20
76553;BME280;65395;53.168;18.156;2024-03-17T08:40:51;101337.33;;;3.85;77.39
76553;BME280;65395;53.168;18.156;2024-03-17T08:43:19;101329.95;;;3.98;76.78
76553;BME280;65395;53.168;18.156;2024-03-17T08:45:58;101330.74;;;4.09;75.98
76553;BME280;65395;53.168;18.156;2024-03-17T08:48:26;101332.02;;;4.18;75.24
76553;BME280;65395;53.168;18.156;2024-03-17T08:50:55;101335.80;;;4.26;75.12
76553;BME280;65395;53.168;18.156;2024-03-17T08:53:22;101336.79;;;4.37;74.04
76553;BME280;65395;53.168;18.156;2024-03-17T08:55:50;101324.02;;;4.49;74.07
76553;BME280;65395;53.168;18.156;2024-03-17T08:58:17;101342.10;;;4.70;72.67
76553;BME280;65395;53.168;18.156;2024-03-17T09:00:44;101345.05;;;4.83;71.04
76553;BME280;65395;53.168;18.156;2024-03-17T09:03:12;101335.79;;;4.95;70.95
76553;BME280;65395;53.168;18.156;2024-03-17T09:05:40;101340.67;;;5.06;70.15
76553;BME280;65395;53.168;18.156;2024-03-17T09:08:08;101348.90;;;5.18;70.43
76553;BME280;65395;53.168;18.156;2024-03-17T09:10:41;101343.54;;;5.25;68.53
76553;BME280;65395;53.168;18.156;2024-03-17T09:13:14;101351.23;;;5.33;68.98
76553;BME280;65395;53.168;18.156;2024-03-17T09:15:52;101349.52;;;5.39;66.74
76553;BME280;65395;53.168;18.156;2024-03-17T09:18:19;101357.65;;;5.44;67.08
76553;BME280;65395;53.168;18.156;2024-03-17T09:20:58;101365.61;;;5.47;65.45
76553;BME280;65395;53.168;18.156;2024-03-17T09:23:25;101379.56;;;5.47;64.86
76553;BME280;65395;53.168;18.156;2024-03-17T09:26:03;101365.54;;;5.49;65.23
76553;BME280;65395;53.168;18.156;2024-03-17T09:28:33;101364.86;;;5.54;64.38
76553;BME280;65395;53.168;18.156;2024-03-17T09:31:00;101369.12;;;5.62;64.86
76553;BME280;65395;53.168;18.156;2024-03-17T09:33:29;101356.70;;;5.72;65.50
76553;BME280;65395;53.168;18.156;2024-03-17T09:36:00;101351.23;;;5.87;65.00
76553;BME280;65395;53.168;18.156;2024-03-17T09:38:28;101368.89;;;5.98;65.84
76553;BME280;65395;53.168;18.156;2024-03-17T09:40:55;101369.76;;;6.06;64.85
76553;BME280;65395;53.168;18.156;2024-03-17T09:43:28;101364.01;;;6.09;64.88
76553;BME280;65395;53.168;18.156;2024-03-17T09:45:55;101364.19;;;6.14;63.55
76553;BME280;65395;53.168;18.156;2024-03-17T09:48:26;101374.67;;;6.22;62.85
76553;BME280;65395;53.168;18.156;2024-03-17T09:50:59;101359.06;;;6.32;63.09
76553;BME280;65395;53.168;18.156;2024-03-17T09:53:29;101365.34;;;6.38;62.46
76553;BME280;65395;53.168;18.156;2024-03-17T09:55:58;101366.65;;;6.38;63.77
76553;BME280;65395;53.168;18.156;2024-03-17T09:58:25;101363.95;;;6.43;63.72
76553;BME280;65395;53.168;18.156;2024-03-17T10:00:52;101379.51;;;6.43;60.47
76553;BME280;65395;53.168;18.156;2024-03-17T10:06:07;101385.81;;;6.21;60.87
76553;BME280;65395;53.168;18.156;2024-03-17T10:08:45;101378.80;;;6.17;60.57
76553;BME280;65395;53.168;18.156;2024-03-17T10:11:14;101377.77;;;6.19;61.19
76553;BME280;65395;53.168;18.156;2024-03-17T10:13:44;101392.38;;;6.35;61.37
76553;BME280;65395;53.168;18.156;2024-03-17T10:16:23;101386.09;;;6.49;60.41
76553;BME280;65395;53.168;18.156;2024-03-17T10:19:05;101390.55;;;6.53;59.66
76553;BME280;65395;53.168;18.156;2024-03-17T10:21:32;101388.85;;;6.52;58.92
76553;BME280;65395;53.168;18.156;2024-03-17T10:24:08;101390.42;;;6.52;58.50
76553;BME280;65395;53.168;18.156;2024-03-17T10:26:40;101395.84;;;6.43;58.04
76553;BME280;65395;53.168;18.156;2024-03-17T10:29:30;101403.64;;;6.36;58.75
76553;BME280;65395;53.168;18.156;2024-03-17T10:32:02;101411.91;;;6.29;59.40
76553;BME280;65395;53.168;18.156;2024-03-17T10:34:30;101416.98;;;6.09;59.96
76553;BME280;65395;53.168;18.156;2024-03-17T10:37:10;101425.35;;;5.81;61.44
76553;BME280;65395;53.168;18.156;2024-03-17T10:39:38;101425.42;;;5.49;62.67
76553;BME280;65395;53.168;18.156;2024-03-17T10:42:09;101425.08;;;5.27;62.70
76553;BME280;65395;53.168;18.156;2024-03-17T10:44:38;101428.05;;;5.07;62.14
76553;BME280;65395;53.168;18.156;2024-03-17T10:47:06;101432.09;;;4.83;61.67
76553;BME280;65395;53.168;18.156;2024-03-17T10:49:37;101434.52;;;4.69;62.20
76553;BME280;65395;53.168;18.156;2024-03-17T10:52:06;101435.20;;;4.66;62.81
76553;BME280;65395;53.168;18.156;2024-03-17T10:54:34;101434.05;;;4.71;62.79
76553;BME280;65395;53.168;18.156;2024-03-17T10:57:23;101428.02;;;4.81;63.37
76553;BME280;65395;53.168;18.156;2024-03-17T10:59:52;101428.64;;;4.95;62.31
76553;BME280;65395;53.168;18.156;2024-03-17T11:02:22;101422.63;;;4.95;62.60
76553;BME280;65395;53.168;18.156;2024-03-17T11:05:00;101434.44;;;4.95;63.09
76553;BME280;65395;53.168;18.156;2024-03-17T11:07:27;101434.72;;;4.98;62.96
76553;BME280;65395;53.168;18.156;2024-03-17T11:09:59;101440.50;;;5.03;62.54
76553;BME280;65395;53.168;18.156;2024-03-17T11:12:39;101443.91;;;4.99;61.99
76553;BME280;65395;53.168;18.156;2024-03-17T11:15:35;101451.67;;;4.90;60.83
76553;BME280;65395;53.168;18.156;2024-03-17T11:18:28;101445.88;;;4.83;61.02
76553;BME280;65395;53.168;18.156;2024-03-17T11:21:00;101444.70;;;4.84;60.95
76553;BME280;65395;53.168;18.156;2024-03-17T11:23:34;101447.13;;;4.81;61.37
76553;BME280;65395;53.168;18.156;2024-03-17T11:26:04;101450.40;;;4.78;62.44
76553;BME280;65395;53.168;18.156;2024-03-17T11:28:44;101447.70;;;4.74;62.42
76553;BME280;65395;53.168;18.156;2024-03-17T11:33:59;101457.98;;;4.59;62.44
76553;BME280;65395;53.168;18.156;2024-03-17T11:36:34;101451.05;;;4.53;62.73
76553;BME280;65395;53.168;18.156;2024-03-17T11:39:05;101449.83;;;4.53;63.12
76553;BME280;65395;53.168;18.156;2024-03-17T11:41:40;101455.23;;;4.65;63.20
76553;BME280;65395;53.168;18.156;2024-03-17T11:44:23;101466.55;;;4.78;61.57
76553;BME280;65395;53.168;18.156;2024-03-17T11:47:01;101458.13;;;4.87;60.71
76553;BME280;65395;53.168;18.156;2024-03-17T11:49:32;101465.55;;;4.94;58.99
76553;BME280;65395;53.168;18.156;2024-03-17T11:52:02;101461.27;;;5.01;59.11
76553;BME280;65395;53.168;18.156;2024-03-17T11:54:30;101461.49;;;5.09;59.74
76553;BME280;65395;53.168;18.156;2024-03-17T11:57:07;101464.72;;;5.18;60.20
76553;BME280;65395;53.168;18.156;2024-03-17T11:59:35;101467.66;;;5.23;60.55
76553;BME280;65395;53.168;18.156;2024-03-17T12:02:16;101467.80;;;5.30;59.22
76553;BME280;65395;53.168;18.156;2024-03-17T12:04:44;101461.81;;;5.33;59.71
76553;BME280;65395;53.168;18.156;2024-03-17T12:07:16;101459.30;;;5.38;59.77
76553;BME280;65395;53.168;18.156;2024-03-17T12:09:45;101468.64;;;5.37;61.18
76553;BME280;65395;53.168;18.156;2024-03-17T12:12:18;101468.39;;;5.28;62.30
76553;BME280;65395;53.168;18.156;2024-03-17T12:14:47;101470.15;;;5.17;62.83
76553;BME280;65395;53.168;18.156;2024-03-17T12:17:20;101475.90;;;5.03;63.46
76553;BME280;65395;53.168;18.156;2024-03-17T12:19:48;101478.77;;;4.94;63.74
76553;BME280;65395;53.168;18.156;2024-03-17T12:22:20;101485.54;;;4.88;63.92
76553;BME280;65395;53.168;18.156;2024-03-17T12:24:50;101480.38;;;4.67;64.44
76553;BME280;65395;53.168;18.156;2024-03-17T12:27:20;101488.48;;;4.52;64.35
76553;BME280;65395;53.168;18.156;2024-03-17T12:29:49;101486.90;;;4.38;64.51
76553;BME280;65395;53.168;18.156;2024-03-17T12:32:18;101488.73;;;4.34;63.96
76553;BME280;65395;53.168;18.156;2024-03-17T12:34:47;101486.65;;;4.39;63.33
76553;BME280;65395;53.168;18.156;2024-03-17T12:37:17;101488.55;;;4.48;63.15
76553;BME280;65395;53.168;18.156;2024-03-17T12:39:49;101492.69;;;4.54;62.47
76553;BME280;65395;53.168;18.156;2024-03-17T12:42:23;101490.66;;;4.60;62.62
76553;BME280;65395;53.168;18.156;2024-03-17T12:44:53;101484.32;;;4.63;61.93
76553;BME280;65395;53.168;18.156;2024-03-17T12:47:22;101487.30;;;4.54;61.84
76553;BME280;65395;53.168;18.156;2024-03-17T12:49:52;101483.16;;;4.48;62.13
76553;BME280;65395;53.168;18.156;2024-03-17T12:52:22;101484.58;;;4.46;61.99
76553;BME280;65395;53.168;18.156;2024-03-17T12:55:01;101489.02;;;4.44;61.92
76553;BME280;65395;53.168;18.156;2024-03-17T12:57:38;101496.93;;;4.39;61.96
76553;BME280;65395;53.168;18.156;2024-03-17T13:00:17;101497.05;;;4.33;60.76
76553;BME280;65395;53.168;18.156;2024-03-17T13:02:58;101498.45;;;4.25;60.75
76553;BME280;65395;53.168;18.156;2024-03-17T13:05:26;101502.27;;;4.19;61.50
76553;BME280;65395;53.168;18.156;2024-03-17T13:07:54;101516.00;;;4.15;62.69